Aeroporto :







RITROVATECI SU...

 
LOGIN :

Iscrizione | Disclaimer

   EN    FR    IT 

 









Sommario :    VFR   VFR Marginale   IFR   IFR Intensivo   IFR Molto Intensivo
Visibilità : 
Base nubi : 
>= 8 km
>= 3000ft
5 / 8 km
1000 / 3000 ft
1500m / 5 km
500 / 1000 ft
800 / 1500m
200 / 500 ft
< 800m
< 200 ft
Simboli :   Temporali  Nebbia  Neve Forte  Precipitazioni Forti  Vento > 20 kt






- Altitudine del aeroporto : 271 ft


KBAF - Barnes Municipal

ULTIMO METAR :
  • 171653Z 01008KT 10SM OVC031 00/M10 A3038 RMK AO2 SLP295 T00001100

METARs OBSOLETI :
  • 171553Z 36010KT 10SM OVC030 M01/M13 A3042 RMK AO2 SLP310 T10111128
  • 171508Z 36009KT 10SM OVC030 M02/M14 A3045 RMK AO2 T10221144
  • 171453Z 01007KT 10SM OVC029 M03/M14 A3046 RMK AO2 SLP323 T10281144 58004

TAF KBAF
Valido dal 17 a 14 ore il 18 a 12 ore UTC


171406Z 1714/1812 01008KT P6SM OVC025
FM171600 01007KT P6SM BKN025 BKN035
FM171900 01008KT P6SM BKN025
FM180000 02007KT P6SM OVC020
FM180800 01010G17KT P6SM OVC012
FM181000 01011G20KT P6SM VCSH OVC010



MetMap, La meteo Aeronautica in un colpo d'occhio ! - Copyright ORBIFLY Dicembre 2007 - Disclaimer

ORBIFLY MET'MAP TEAM :

Programmazione e sviluppo : Alexandra Zaïnal
Concezione e sviluppo : Baudouin d'Aumeries
Co-Programmazione e sviluppo : Marc-Olivier Méhu
Supporto tecnico e logistico : Manuel Goepfert
Aiuto per la traduzione : Arnaldo La Scala

Contatto : metmap@orbifly.com




FONTI E CREDITI :

   NOAA